createdAt,value
2018-09-08T00:00:50.262Z,14.01
2018-09-08T00:02:50.300Z,14.09
2018-09-08T00:04:50.629Z,14.11
2018-09-08T00:06:49.819Z,14.11
2018-09-08T00:08:49.827Z,14.09
2018-09-08T00:10:49.835Z,14.12
2018-09-08T00:12:49.931Z,14.12
2018-09-08T00:14:49.957Z,14.12
2018-09-08T00:16:50.096Z,14.11
2018-09-08T00:18:50.229Z,14.07
2018-09-08T00:20:50.258Z,14.04
2018-09-08T00:22:50.263Z,13.89
2018-09-08T00:24:50.242Z,13.77
2018-09-08T00:26:50.306Z,13.70
2018-09-08T00:28:50.252Z,13.68
2018-09-08T00:30:49.792Z,13.63
2018-09-08T00:32:49.727Z,13.59
2018-09-08T00:34:50.093Z,13.57
2018-09-08T00:36:50.158Z,13.57
2018-09-08T00:38:50.206Z,13.54
2018-09-08T00:40:50.228Z,13.54
2018-09-08T00:42:50.305Z,13.55
2018-09-08T00:44:50.301Z,13.60
2018-09-08T00:46:50.549Z,13.64
2018-09-08T00:48:50.557Z,13.71
2018-09-08T00:50:50.564Z,13.76
2018-09-08T00:52:50.561Z,13.81
2018-09-08T00:54:50.516Z,13.89
2018-09-08T00:56:50.890Z,13.92
2018-09-08T00:58:50.151Z,13.98
2018-09-08T01:00:50.119Z,13.98
2018-09-08T01:02:50.073Z,14.03
2018-09-08T01:04:50.316Z,14.04
2018-09-08T01:06:50.476Z,14.04
2018-09-08T01:08:50.406Z,14.04
2018-09-08T01:10:50.393Z,14.06
2018-09-08T01:12:50.353Z,14.10
2018-09-08T01:14:50.345Z,14.13
2018-09-08T01:16:50.591Z,14.14
2018-09-08T01:18:50.642Z,14.18
2018-09-08T01:20:50.588Z,14.17
2018-09-08T01:22:49.757Z,14.19
2018-09-08T01:24:49.749Z,14.19
2018-09-08T01:26:49.914Z,14.19
2018-09-08T01:28:49.961Z,14.24
2018-09-08T01:30:49.934Z,14.26
2018-09-08T01:32:49.945Z,14.28
2018-09-08T01:34:50.232Z,14.29
2018-09-08T01:36:50.445Z,14.29
2018-09-08T01:38:50.376Z,14.29
2018-09-08T01:40:50.469Z,14.26
2018-09-08T01:42:50.492Z,14.23
2018-09-08T01:44:49.848Z,14.23
2018-09-08T01:46:50.029Z,14.24
2018-09-08T01:48:50.001Z,14.23
2018-09-08T01:50:49.971Z,14.25
2018-09-08T01:52:49.989Z,14.25
2018-09-08T01:54:49.972Z,14.27
2018-09-08T01:56:50.185Z,14.27
2018-09-08T01:58:50.178Z,14.28
2018-09-08T02:00:50.195Z,14.26
2018-09-08T02:02:50.216Z,14.20
2018-09-08T02:04:50.574Z,14.15
2018-09-08T02:06:49.763Z,14.08
2018-09-08T02:08:49.723Z,14.02
2018-09-08T02:10:49.710Z,14.00
2018-09-08T02:12:49.811Z,13.97
2018-09-08T02:14:49.800Z,13.96
2018-09-08T02:16:49.963Z,13.97
2018-09-08T02:18:49.989Z,13.99
2018-09-08T02:20:49.985Z,14.04
2018-09-08T02:22:49.931Z,14.07
2018-09-08T02:24:49.979Z,14.11
2018-09-08T02:26:50.132Z,14.14
2018-09-08T02:28:50.109Z,14.16
2018-09-08T02:30:50.076Z,14.20
2018-09-08T02:32:50.094Z,14.22
2018-09-08T02:34:50.360Z,14.24
2018-09-08T02:36:50.681Z,14.22
2018-09-08T02:38:49.780Z,14.23
2018-09-08T02:40:49.947Z,14.24
2018-09-08T02:42:49.996Z,14.23
2018-09-08T02:44:50.101Z,14.23
2018-09-08T02:46:50.319Z,14.24
2018-09-08T02:48:50.357Z,14.25
2018-09-08T02:50:50.381Z,14.26
2018-09-08T02:52:50.362Z,14.27
2018-09-08T02:54:50.400Z,14.27
2018-09-08T02:56:50.507Z,14.33
2018-09-08T02:58:50.631Z,14.33
2018-09-08T03:00:50.671Z,14.33
2018-09-08T03:02:49.692Z,14.34
2018-09-08T03:04:50.064Z,14.32
2018-09-08T03:06:50.284Z,14.30
2018-09-08T03:08:50.267Z,14.29
2018-09-08T03:10:50.246Z,14.28
2018-09-08T03:12:50.277Z,14.22
2018-09-08T03:14:50.283Z,14.15
2018-09-08T03:16:50.371Z,14.10
2018-09-08T03:18:50.340Z,14.02
2018-09-08T03:20:50.304Z,13.90
2018-09-08T03:22:50.327Z,13.87
2018-09-08T03:24:50.331Z,13.79
2018-09-08T03:26:50.651Z,13.73
2018-09-08T03:28:50.668Z,13.64
2018-09-08T03:30:50.639Z,13.58
2018-09-08T03:32:49.709Z,13.52
2018-09-08T03:34:50.206Z,13.47
2018-09-08T03:36:50.342Z,13.45
2018-09-08T03:38:50.371Z,13.42
2018-09-08T03:40:50.369Z,13.41
2018-09-08T03:42:50.386Z,13.39
2018-09-08T03:44:50.313Z,13.34
2018-09-08T03:46:50.579Z,13.33
2018-09-08T03:48:50.481Z,13.32
2018-09-08T03:50:50.530Z,13.31
2018-09-08T03:52:50.577Z,13.31
2018-09-08T03:54:50.507Z,13.31
2018-09-08T03:56:49.736Z,13.31
2018-09-08T03:58:49.894Z,13.31
2018-09-08T04:00:49.993Z,13.31
2018-09-08T04:02:50.053Z,13.38
2018-09-08T04:04:50.538Z,13.45
2018-09-08T04:06:49.713Z,13.52
2018-09-08T04:08:49.740Z,13.56
2018-09-08T04:10:49.876Z,13.56
2018-09-08T04:12:49.863Z,13.58
2018-09-08T04:14:49.953Z,13.60
2018-09-08T04:16:50.149Z,13.53
2018-09-08T04:18:50.141Z,13.49
2018-09-08T04:20:50.164Z,13.42
2018-09-08T04:22:50.190Z,13.41
2018-09-08T04:24:50.386Z,13.42
2018-09-08T04:26:49.977Z,13.44
2018-09-08T04:28:49.991Z,13.47
2018-09-08T04:30:50.111Z,13.55
2018-09-08T04:32:50.092Z,13.57
2018-09-08T04:34:50.190Z,13.61
2018-09-08T04:36:50.377Z,13.62
2018-09-08T04:38:50.408Z,13.63
2018-09-08T04:40:50.586Z,13.62
2018-09-08T04:42:49.745Z,13.62
2018-09-08T04:44:49.749Z,13.65
2018-09-08T04:46:49.891Z,13.66
2018-09-08T04:48:49.872Z,13.66
2018-09-08T04:50:49.937Z,13.66
2018-09-08T04:52:49.965Z,13.70
2018-09-08T04:54:49.914Z,13.71
2018-09-08T04:56:49.978Z,13.72
2018-09-08T04:58:50.022Z,13.76
2018-09-08T05:00:49.956Z,13.83
2018-09-08T05:02:49.936Z,13.86
2018-09-08T05:04:50.263Z,13.82
2018-09-08T05:06:50.431Z,13.78
2018-09-08T05:08:50.432Z,13.78
2018-09-08T05:10:50.428Z,13.71
2018-09-08T05:12:50.429Z,13.65
2018-09-08T05:14:50.573Z,13.63
2018-09-08T05:16:49.775Z,13.58
2018-09-08T05:18:49.848Z,13.55
2018-09-08T05:20:50.001Z,13.50
2018-09-08T05:22:50.144Z,13.46
2018-09-08T05:24:50.185Z,13.42
2018-09-08T05:26:50.474Z,13.36
2018-09-08T05:28:50.396Z,13.36
2018-09-08T05:30:50.422Z,13.39
2018-09-08T05:32:50.490Z,13.39
2018-09-08T05:34:49.858Z,13.49
2018-09-08T05:36:49.902Z,13.60
2018-09-08T05:38:49.836Z,13.76
2018-09-08T05:40:49.938Z,13.89
2018-09-08T05:42:50.165Z,14.06
2018-09-08T05:44:50.223Z,14.27
2018-09-08T05:46:50.268Z,14.36
2018-09-08T05:48:50.729Z,14.42
2018-09-08T05:50:49.819Z,14.51
2018-09-08T05:52:49.957Z,14.58
2018-09-08T05:54:49.888Z,14.53
2018-09-08T05:56:50.009Z,14.53
2018-09-08T05:58:49.993Z,14.51
2018-09-08T06:00:50.002Z,14.42
2018-09-08T06:02:49.977Z,14.43
2018-09-08T06:04:50.407Z,14.62
2018-09-08T06:06:50.584Z,14.71
2018-09-08T06:08:50.467Z,14.76
2018-09-08T06:10:50.503Z,14.70
2018-09-08T06:12:50.657Z,14.65
2018-09-08T06:14:50.626Z,14.63
2018-09-08T06:16:49.825Z,14.57
2018-09-08T06:18:49.847Z,14.56
2018-09-08T06:20:49.937Z,14.60
2018-09-08T06:22:49.969Z,14.72
2018-09-08T06:24:50.015Z,14.74
2018-09-08T06:26:50.172Z,14.80
2018-09-08T06:28:50.247Z,14.80
2018-09-08T06:30:50.251Z,14.85
2018-09-08T06:32:50.167Z,14.87
2018-09-08T06:34:50.625Z,15.07
2018-09-08T06:36:49.861Z,15.22
2018-09-08T06:38:49.859Z,15.46
2018-09-08T06:40:49.984Z,15.46
2018-09-08T06:42:49.979Z,15.52
2018-09-08T06:44:50.344Z,15.47
2018-09-08T06:46:49.776Z,15.39
2018-09-08T06:48:49.777Z,15.29
2018-09-08T06:50:49.817Z,15.29
2018-09-08T06:52:49.836Z,15.28
2018-09-08T06:54:49.947Z,15.27
2018-09-08T06:56:50.045Z,15.16
2018-09-08T06:58:49.928Z,15.12
2018-09-08T07:00:49.956Z,15.08
2018-09-08T07:02:49.914Z,15.08
2018-09-08T07:04:50.286Z,15.10
2018-09-08T07:06:50.312Z,15.15
2018-09-08T07:08:50.301Z,15.28
2018-09-08T07:10:50.319Z,15.36
2018-09-08T07:12:50.284Z,15.52
2018-09-08T07:14:50.357Z,15.71
2018-09-08T07:16:50.471Z,16.05
2018-09-08T07:18:50.451Z,16.32
2018-09-08T07:20:50.465Z,16.5
2018-09-08T07:22:50.464Z,16.6
2018-09-08T07:24:50.802Z,16.6
2018-09-08T07:26:50.097Z,16.8
2018-09-08T07:28:50.124Z,16.8
2018-09-08T07:30:50.122Z,16.64
2018-09-08T07:32:50.124Z,16.45
2018-09-08T07:34:50.334Z,16.43
2018-09-08T07:36:50.463Z,16.46
2018-09-08T07:38:50.471Z,16.46
2018-09-08T07:40:50.562Z,16.47
2018-09-08T07:42:50.501Z,16.53
2018-09-08T07:44:50.493Z,16.74
2018-09-08T07:46:49.739Z,16.86
2018-09-08T07:48:49.722Z,16.93
2018-09-08T07:50:49.801Z,17.14
2018-09-08T07:52:49.881Z,17.2
2018-09-08T07:54:49.864Z,17.30
2018-09-08T07:56:50.079Z,17.10
2018-09-08T07:58:50.053Z,16.99
2018-09-08T08:00:50.046Z,16.74
2018-09-08T08:02:50.018Z,16.63
2018-09-08T08:04:50.559Z,16.63
2018-09-08T08:06:50.217Z,16.68
2018-09-08T08:08:50.317Z,16.82
2018-09-08T08:10:50.247Z,16.81
2018-09-08T08:12:50.287Z,16.61
2018-09-08T08:14:50.318Z,16.56
2018-09-08T08:16:50.474Z,16.50
2018-09-08T08:18:50.569Z,16.37
2018-09-08T08:20:49.852Z,16.34
2018-09-08T08:22:49.998Z,16.47
2018-09-08T08:24:50.084Z,16.60
2018-09-08T08:26:50.311Z,17.06
2018-09-08T08:28:50.306Z,17.2
2018-09-08T08:30:50.266Z,17.4
2018-09-08T08:32:50.214Z,17.4
2018-09-08T08:34:50.523Z,17.7
2018-09-08T08:36:49.717Z,17.9
2018-09-08T08:38:49.849Z,18.1
2018-09-08T08:40:49.864Z,18.1
2018-09-08T08:42:49.873Z,18.2
2018-09-08T08:44:49.985Z,18.4
2018-09-08T08:46:50.252Z,18.4
2018-09-08T08:48:50.323Z,18.5
2018-09-08T08:50:50.330Z,18.5
2018-09-08T08:52:50.327Z,18.5
2018-09-08T08:54:50.497Z,18.19
2018-09-08T08:56:49.700Z,17.86
2018-09-08T08:58:50.680Z,17.66
2018-09-08T09:00:49.794Z,17.72
2018-09-08T09:02:49.921Z,17.94
2018-09-08T09:04:50.262Z,18.02
2018-09-08T09:06:50.400Z,18.21
2018-09-08T09:08:50.655Z,18.05
2018-09-08T09:10:50.728Z,17.95
2018-09-08T09:12:50.101Z,17.89
2018-09-08T09:14:50.281Z,18.21
2018-09-08T09:16:50.505Z,18.4
2018-09-08T09:18:53.163Z,18.4
2018-09-08T09:20:49.890Z,18.6
2018-09-08T09:22:49.947Z,18.6
2018-09-08T09:24:52.446Z,18.7
2018-09-08T09:26:49.881Z,18.7
2018-09-08T09:28:49.837Z,18.8
2018-09-08T09:30:49.861Z,18.8
2018-09-08T09:32:49.899Z,19.0
2018-09-08T09:34:50.277Z,19.0
2018-09-08T09:36:50.405Z,19.0
2018-09-08T09:38:50.481Z,19.0
2018-09-08T09:40:50.463Z,18.68
2018-09-08T09:42:50.474Z,18.55
2018-09-08T09:44:50.553Z,18.60
2018-09-08T09:46:49.709Z,18.76
2018-09-08T09:48:49.769Z,18.8
2018-09-08T09:50:49.802Z,18.9
2018-09-08T09:52:49.969Z,18.9
2018-09-08T09:54:49.979Z,18.9
2018-09-08T09:56:50.147Z,18.9
2018-09-08T09:58:50.367Z,18.9
2018-09-08T10:00:50.420Z,19.0
2018-09-08T10:02:50.025Z,19.0
2018-09-08T10:04:50.677Z,19.1
2018-09-08T10:06:50.179Z,19.1
2018-09-08T10:08:50.383Z,19.2
2018-09-08T10:10:50.519Z,19.2
2018-09-08T10:12:50.669Z,19.3
2018-09-08T10:14:49.849Z,19.3
2018-09-08T10:16:50.302Z,19.3
2018-09-08T10:18:50.613Z,19.3
2018-09-08T10:20:49.839Z,19.4
2018-09-08T10:22:49.979Z,19.4
2018-09-08T10:24:50.199Z,19.4
2018-09-08T10:26:49.735Z,19.4
2018-09-08T10:28:49.932Z,19.5
2018-09-08T10:30:50.228Z,19.6
2018-09-08T10:32:50.504Z,19.6
2018-09-08T10:34:50.250Z,19.6
2018-09-08T10:36:50.568Z,19.7
2018-09-08T10:38:50.521Z,19.7
2018-09-08T10:40:50.617Z,19.8
2018-09-08T10:42:50.566Z,19.8
2018-09-08T10:44:50.673Z,19.8
2018-09-08T10:46:49.802Z,19.8
2018-09-08T10:48:49.835Z,19.9
2018-09-08T10:50:50.286Z,20.0
2018-09-08T10:52:50.369Z,20.0
2018-09-08T10:54:50.410Z,20.0
2018-09-08T10:56:50.582Z,20.1
2018-09-08T10:58:50.518Z,20.2
2018-09-08T11:00:50.544Z,20.2
2018-09-08T11:02:52.408Z,20.2
2018-09-08T11:04:50.402Z,20.3
2018-09-08T11:06:50.689Z,20.3
2018-09-08T11:08:49.996Z,20.4
2018-09-08T11:10:50.011Z,20.4
2018-09-08T11:12:50.023Z,20.4
2018-09-08T11:14:50.014Z,20.5
2018-09-08T11:16:50.248Z,20.5
2018-09-08T11:18:50.430Z,20.6
2018-09-08T11:20:50.597Z,20.7
2018-09-08T11:22:50.657Z,20.7
2018-09-08T11:24:49.753Z,20.7
2018-09-08T11:26:49.964Z,20.8
2018-09-08T11:28:49.927Z,20.8
2018-09-08T11:30:49.945Z,20.8
2018-09-08T11:32:49.861Z,20.8
2018-09-08T11:34:50.288Z,20.9
2018-09-08T11:36:50.454Z,21.0
2018-09-08T11:38:50.389Z,21.0
2018-09-08T11:40:50.390Z,21.0
2018-09-08T11:42:50.422Z,21.1
2018-09-08T11:44:50.981Z,21.1
2018-09-08T11:46:50.329Z,21.2
2018-09-08T11:48:50.383Z,21.2
2018-09-08T11:50:50.401Z,21.2
2018-09-08T11:52:50.816Z,21.3
2018-09-08T11:54:49.901Z,21.3
2018-09-08T11:56:50.103Z,21.4
2018-09-08T11:58:50.062Z,21.4
2018-09-08T12:00:50.100Z,21.4
2018-09-08T12:02:50.179Z,21.4
2018-09-08T12:04:50.483Z,21.5
2018-09-08T12:06:50.672Z,21.5
2018-09-08T12:08:49.712Z,21.5
2018-09-08T12:10:49.756Z,21.6
2018-09-08T12:12:49.813Z,21.6
2018-09-08T12:14:49.962Z,21.7
2018-09-08T12:16:50.121Z,21.7
2018-09-08T12:18:50.156Z,21.8
2018-09-08T12:20:50.185Z,21.8
2018-09-08T12:22:50.219Z,21.9
2018-09-08T12:24:50.197Z,21.9
2018-09-08T12:26:50.371Z,21.9
2018-09-08T12:28:50.416Z,22.0
2018-09-08T12:30:50.760Z,22.0
2018-09-08T12:32:49.845Z,22.1
2018-09-08T12:34:50.299Z,22.1
2018-09-08T12:36:50.452Z,22.1
2018-09-08T12:38:50.895Z,22.1
2018-09-08T12:40:50.114Z,22.1
2018-09-08T12:42:50.100Z,22.1
2018-09-08T12:44:50.151Z,22.2
2018-09-08T12:46:50.259Z,22.2
2018-09-08T12:48:50.286Z,22.2
2018-09-08T12:50:50.320Z,22.3
2018-09-08T12:52:50.420Z,22.3
2018-09-08T12:54:50.336Z,22.3
2018-09-08T12:56:50.543Z,22.4
2018-09-08T12:58:50.581Z,22.4
2018-09-08T13:00:50.547Z,22.5
2018-09-08T13:02:50.554Z,22.6
2018-09-08T13:04:50.002Z,22.6
2018-09-08T13:06:50.184Z,22.6
2018-09-08T13:08:50.207Z,22.7
2018-09-08T13:10:50.180Z,22.7
2018-09-08T13:12:50.161Z,22.7
2018-09-08T13:14:50.161Z,22.7
2018-09-08T13:16:50.339Z,22.7
2018-09-08T13:18:50.307Z,22.8
2018-09-08T13:20:50.329Z,22.8
2018-09-08T13:22:50.554Z,22.8
2018-09-08T13:24:50.497Z,22.8
2018-09-08T13:26:49.851Z,22.8
2018-09-08T13:28:49.896Z,22.9
2018-09-08T13:30:49.932Z,22.9
2018-09-08T13:32:49.926Z,23.0
2018-09-08T13:34:50.255Z,23.0
2018-09-08T13:36:50.434Z,23.0
2018-09-08T13:38:50.436Z,23.0
2018-09-08T13:40:50.433Z,23.0
2018-09-08T13:42:50.493Z,23.1
2018-09-08T13:44:50.510Z,23.1
2018-09-08T13:46:50.987Z,23.1
2018-09-08T13:48:50.190Z,23.1
2018-09-08T13:50:50.193Z,23.1
2018-09-08T13:52:50.491Z,23.1
2018-09-08T13:54:49.737Z,23.1
2018-09-08T13:56:49.991Z,23.2
2018-09-08T13:58:49.983Z,23.2
2018-09-08T14:00:49.938Z,23.3
2018-09-08T14:02:49.966Z,23.3
2018-09-08T14:04:50.252Z,23.4
2018-09-08T14:06:50.385Z,23.4
2018-09-08T14:08:50.532Z,23.4
2018-09-08T14:10:50.543Z,23.4
2018-09-08T14:12:50.554Z,23.4
2018-09-08T14:14:50.537Z,23.4
2018-09-08T14:16:50.646Z,23.5
2018-09-08T14:18:49.708Z,23.5
2018-09-08T14:20:49.812Z,23.5
2018-09-08T14:22:49.816Z,23.5
2018-09-08T14:24:49.859Z,23.5
2018-09-08T14:26:50.019Z,23.5
2018-09-08T14:28:50.031Z,23.6
2018-09-08T14:30:50.043Z,23.6
2018-09-08T14:32:50.097Z,23.6
2018-09-08T14:34:50.453Z,23.6
2018-09-08T14:36:50.163Z,23.6
2018-09-08T14:38:50.367Z,23.7
2018-09-08T14:40:49.849Z,23.7
2018-09-08T14:42:50.105Z,23.7
2018-09-08T14:44:50.399Z,23.8
2018-09-08T14:46:50.599Z,23.7
2018-09-08T14:48:50.696Z,23.7
2018-09-08T14:50:49.848Z,23.7
2018-09-08T14:52:49.929Z,23.7
2018-09-08T14:54:49.911Z,23.6
2018-09-08T14:56:50.887Z,23.6
2018-09-08T14:58:50.183Z,23.6
2018-09-08T15:00:50.264Z,23.6
2018-09-08T15:02:50.266Z,23.5
2018-09-08T15:04:51.200Z,23.6
2018-09-08T15:06:50.555Z,23.6
2018-09-08T15:08:50.668Z,23.6
2018-09-08T15:10:50.704Z,23.6
2018-09-08T15:12:49.845Z,23.6
2018-09-08T15:14:49.967Z,23.6
2018-09-08T15:16:50.170Z,23.6
2018-09-08T15:18:50.144Z,23.7
2018-09-08T15:20:50.170Z,23.7
2018-09-08T15:22:50.188Z,23.7
2018-09-08T15:24:50.232Z,23.7
2018-09-08T15:26:50.468Z,23.7
2018-09-08T15:28:50.486Z,23.6
2018-09-08T15:30:50.437Z,23.7
2018-09-08T15:32:50.777Z,23.7
2018-09-08T15:34:50.199Z,23.6
2018-09-08T15:36:50.330Z,23.6
2018-09-08T15:38:50.251Z,23.6
2018-09-08T15:40:50.329Z,23.6
2018-09-08T15:42:50.456Z,23.6
2018-09-08T15:44:50.530Z,23.6
2018-09-08T15:46:49.860Z,23.6
2018-09-08T15:48:49.911Z,23.6
2018-09-08T15:50:49.977Z,23.5
2018-09-08T15:52:49.978Z,23.4
2018-09-08T15:54:49.990Z,23.4
2018-09-08T15:56:50.218Z,23.4
2018-09-08T15:58:50.249Z,23.4
2018-09-08T16:00:50.320Z,23.3
2018-09-08T16:02:50.319Z,23.2
2018-09-08T16:04:49.761Z,23.2
2018-09-08T16:06:50.172Z,23.2
2018-09-08T16:08:50.223Z,23.1
2018-09-08T16:10:50.514Z,23.0
2018-09-08T16:12:49.691Z,23.0
2018-09-08T16:14:49.816Z,22.9
2018-09-08T16:16:50.169Z,22.9
2018-09-08T16:18:50.710Z,22.8
2018-09-08T16:20:49.857Z,22.7
2018-09-08T16:22:49.952Z,22.6
2018-09-08T16:24:50.115Z,22.6
2018-09-08T16:26:50.208Z,22.6
2018-09-08T16:28:50.285Z,22.5
2018-09-08T16:30:50.415Z,22.4
2018-09-08T16:32:50.355Z,22.4
2018-09-08T16:34:49.940Z,22.4
2018-09-08T16:36:50.052Z,22.3
2018-09-08T16:38:50.471Z,22.3
2018-09-08T16:40:49.976Z,22.2
2018-09-08T16:42:50.051Z,22.2
2018-09-08T16:44:50.225Z,22.2
2018-09-08T16:46:50.493Z,22.1
2018-09-08T16:48:50.462Z,22.0
2018-09-08T16:50:49.866Z,22.0
2018-09-08T16:52:49.925Z,22.0
2018-09-08T16:54:49.904Z,21.9
2018-09-08T16:56:50.128Z,21.9
2018-09-08T16:58:50.129Z,21.8
2018-09-08T17:00:50.299Z,21.7
2018-09-08T17:02:50.263Z,21.7
2018-09-08T17:04:50.735Z,21.6
2018-09-08T17:06:50.558Z,21.6
2018-09-08T17:08:49.715Z,21.5
2018-09-08T17:10:50.104Z,21.5
2018-09-08T17:12:50.166Z,21.4
2018-09-08T17:14:50.231Z,21.39
2018-09-08T17:16:50.472Z,21.3
2018-09-08T17:18:50.528Z,21.27
2018-09-08T17:20:50.492Z,21.22
2018-09-08T17:22:50.894Z,21.15
2018-09-08T17:24:49.989Z,21.11
2018-09-08T17:26:50.209Z,21.03
2018-09-08T17:28:50.267Z,20.93
2018-09-08T17:30:50.281Z,20.88
2018-09-08T17:32:50.286Z,20.77
2018-09-08T17:34:50.625Z,20.71
2018-09-08T17:36:49.889Z,20.60
2018-09-08T17:38:50.067Z,20.53
2018-09-08T17:40:50.189Z,20.45
2018-09-08T17:42:50.248Z,20.32
2018-09-08T17:44:50.241Z,20.27
2018-09-08T17:46:50.367Z,20.06
2018-09-08T17:48:50.358Z,19.90
2018-09-08T17:50:50.437Z,19.77
2018-09-08T17:52:50.568Z,19.59
2018-09-08T17:54:50.687Z,19.43
2018-09-08T17:56:50.012Z,19.22
2018-09-08T17:58:50.241Z,19.22
2018-09-08T18:00:50.312Z,18.85
2018-09-08T18:02:50.273Z,18.85
2018-09-08T18:04:49.865Z,18.54
2018-09-08T18:06:50.196Z,18.54
2018-09-08T18:08:50.236Z,18.27
2018-09-08T18:10:50.285Z,18.14
2018-09-08T18:12:50.354Z,18.06
2018-09-08T18:14:50.364Z,17.92
2018-09-08T18:16:50.603Z,17.82
2018-09-08T18:18:49.729Z,17.75
2018-09-08T18:20:49.868Z,17.56
2018-09-08T18:22:49.995Z,17.41
2018-09-08T18:24:50.038Z,17.35
2018-09-08T18:26:50.199Z,17.17
2018-09-08T18:28:50.244Z,17.05
2018-09-08T18:30:50.264Z,16.96
2018-09-08T18:32:50.789Z,16.89
2018-09-08T18:34:50.153Z,16.77
2018-09-08T18:36:50.404Z,16.65
2018-09-08T18:38:50.480Z,16.58
2018-09-08T18:40:50.510Z,16.47
2018-09-08T18:42:50.532Z,16.39
2018-09-08T18:44:50.572Z,16.29
2018-09-08T18:46:49.769Z,16.22
2018-09-08T18:48:49.856Z,16.15
2018-09-08T18:50:49.865Z,16.11
2018-09-08T18:52:49.983Z,15.99
2018-09-08T18:54:50.080Z,15.95
2018-09-08T18:56:50.235Z,15.84
2018-09-08T18:58:50.269Z,15.81
2018-09-08T19:00:50.421Z,15.81
2018-09-08T19:02:50.441Z,15.60
2018-09-08T19:04:49.975Z,15.55
2018-09-08T19:06:50.208Z,15.52
2018-09-08T19:08:50.221Z,15.35
2018-09-08T19:10:50.244Z,15.28
2018-09-08T19:12:50.266Z,15.22
2018-09-08T19:14:50.292Z,15.17
2018-09-08T19:16:50.075Z,15.10
2018-09-08T19:18:50.080Z,15.07
2018-09-08T19:20:50.126Z,14.97
2018-09-08T19:22:50.200Z,14.89
2018-09-08T19:24:50.354Z,14.83
2018-09-08T19:26:50.438Z,14.76
2018-09-08T19:28:50.485Z,14.67
2018-09-08T19:30:50.478Z,14.62
2018-09-08T19:32:50.603Z,14.59
2018-09-08T19:34:49.901Z,14.51
2018-09-08T19:36:50.145Z,14.40
2018-09-08T19:38:50.208Z,14.35
2018-09-08T19:40:50.287Z,14.28
2018-09-08T19:42:51.062Z,14.24
2018-09-08T19:44:50.207Z,14.16
2018-09-08T19:46:50.384Z,14.09
2018-09-08T19:48:50.465Z,14.05
2018-09-08T19:50:50.550Z,13.98
2018-09-08T19:52:49.777Z,13.94
2018-09-08T19:54:50.267Z,13.88
2018-09-08T19:56:50.555Z,13.86
2018-09-08T19:58:50.609Z,13.78
2018-09-08T20:00:49.757Z,13.76
2018-09-08T20:02:49.790Z,13.69
2018-09-08T20:04:50.222Z,13.62
2018-09-08T20:06:50.407Z,13.58
2018-09-08T20:08:50.516Z,13.56
2018-09-08T20:10:50.520Z,13.50
2018-09-08T20:12:50.510Z,13.45
2018-09-08T20:14:50.561Z,13.42
2018-09-08T20:16:49.757Z,13.37
2018-09-08T20:18:49.823Z,13.32
2018-09-08T20:20:49.798Z,13.26
2018-09-08T20:22:49.840Z,13.20
2018-09-08T20:24:49.876Z,13.15
2018-09-08T20:26:51.173Z,13.08
2018-09-08T20:28:51.019Z,13.01
2018-09-08T20:30:50.268Z,12.97
2018-09-08T20:32:50.245Z,12.97
2018-09-08T20:34:50.776Z,12.89
2018-09-08T20:36:50.103Z,12.84
2018-09-08T20:38:50.168Z,12.83
2018-09-08T20:40:50.320Z,12.75
2018-09-08T20:42:50.349Z,12.71
2018-09-08T20:44:50.398Z,12.65
2018-09-08T20:46:50.595Z,12.61
2018-09-08T20:48:50.660Z,12.55
2018-09-08T20:50:49.744Z,12.49
2018-09-08T20:52:49.821Z,12.42
2018-09-08T20:54:49.833Z,12.40
2018-09-08T20:56:50.186Z,12.38
2018-09-08T20:58:50.177Z,12.36
2018-09-08T21:00:50.202Z,12.34
2018-09-08T21:02:50.174Z,12.30
2018-09-08T21:04:50.632Z,12.27
2018-09-08T21:06:49.928Z,12.25
2018-09-08T21:08:50.059Z,12.21
2018-09-08T21:10:50.210Z,12.18
2018-09-08T21:12:50.191Z,12.18
2018-09-08T21:14:50.173Z,12.07
2018-09-08T21:16:50.288Z,12.05
2018-09-08T21:18:50.306Z,12.02
2018-09-08T21:20:50.305Z,12.01
2018-09-08T21:22:50.308Z,12.00
2018-09-08T21:24:50.591Z,11.98
2018-09-08T21:26:49.909Z,11.96
2018-09-08T21:28:49.903Z,11.93
2018-09-08T21:30:49.818Z,11.89
2018-09-08T21:32:49.986Z,11.83
2018-09-08T21:34:50.347Z,11.81
2018-09-08T21:36:50.516Z,11.78
2018-09-08T21:38:50.491Z,11.74
2018-09-08T21:40:50.441Z,11.72
2018-09-08T21:42:50.483Z,11.67
2018-09-08T21:44:50.476Z,11.66
2018-09-08T21:46:50.541Z,11.65
2018-09-08T21:48:50.543Z,11.61
2018-09-08T21:50:50.531Z,11.57
2018-09-08T21:52:50.522Z,11.55
2018-09-08T21:54:50.693Z,11.52
2018-09-08T21:56:49.953Z,11.51
2018-09-08T21:58:49.980Z,11.46
2018-09-08T22:00:49.981Z,11.43
2018-09-08T22:02:50.166Z,11.36
2018-09-08T22:04:50.530Z,11.35
2018-09-08T22:06:49.808Z,11.34
2018-09-08T22:08:49.929Z,11.30
2018-09-08T22:10:49.989Z,11.26
2018-09-08T22:12:50.029Z,11.25
2018-09-08T22:14:50.062Z,11.18
2018-09-08T22:16:50.266Z,11.16
2018-09-08T22:18:50.323Z,11.15
2018-09-08T22:20:50.361Z,11.13
2018-09-08T22:22:50.388Z,11.09
2018-09-08T22:24:50.445Z,11.08
2018-09-08T22:26:50.655Z,11.06
2018-09-08T22:28:49.809Z,11.02
2018-09-08T22:30:49.819Z,11.01
2018-09-08T22:32:50.195Z,10.99
2018-09-08T22:34:49.750Z,10.98
2018-09-08T22:36:49.958Z,10.96
2018-09-08T22:38:50.296Z,10.96
2018-09-08T22:40:50.493Z,10.89
2018-09-08T22:42:50.626Z,10.88
2018-09-08T22:44:50.584Z,10.83
2018-09-08T22:46:49.857Z,10.83
2018-09-08T22:48:49.959Z,10.82
2018-09-08T22:50:49.977Z,10.81
2018-09-08T22:52:50.026Z,10.81
2018-09-08T22:54:50.120Z,10.79
2018-09-08T22:56:50.765Z,10.75
2018-09-08T22:58:49.893Z,10.72
2018-09-08T23:00:49.958Z,10.66
2018-09-08T23:02:49.950Z,10.61
2018-09-08T23:04:50.245Z,10.58
2018-09-08T23:06:50.419Z,10.52
2018-09-08T23:08:50.383Z,10.48
2018-09-08T23:10:50.479Z,10.48
2018-09-08T23:12:50.467Z,10.42
2018-09-08T23:14:50.619Z,10.42
2018-09-08T23:16:49.808Z,10.33
2018-09-08T23:18:49.874Z,10.29
2018-09-08T23:20:49.971Z,10.27
2018-09-08T23:22:50.053Z,10.24
2018-09-08T23:24:50.071Z,10.20
2018-09-08T23:26:50.382Z,10.16
2018-09-08T23:28:50.459Z,10.13
2018-09-08T23:30:50.412Z,10.12
2018-09-08T23:32:50.520Z,10.10
2018-09-08T23:34:49.810Z,10.09
2018-09-08T23:36:50.016Z,10.05
2018-09-08T23:38:50.200Z,10.05
2018-09-08T23:40:50.317Z,9.98
2018-09-08T23:42:50.375Z,9.97
2018-09-08T23:44:50.348Z,9.91
2018-09-08T23:46:50.561Z,9.88
2018-09-08T23:48:50.560Z,9.85
2018-09-08T23:50:50.512Z,9.82
2018-09-08T23:52:50.652Z,9.80
2018-09-08T23:54:49.694Z,9.79
2018-09-08T23:56:49.862Z,9.76
2018-09-08T23:58:49.934Z,9.75
